• Join FlightAware (Why Join?)
  • Login
  • US Flag 
07:01AM EST


 

Airport Tracker/Info


-or-


 

Live Flight TrackerFlight Track Log ✈ N8147X ✈ 01-Feb-2014 ✈ SGME / ESG - KDXR

Flight Track Log - Related Links

Times and Time Zones

All times are in EST time to prevent confusion due to time zone crossing. See the N8147X flight status page for this flight to view local times or setup timezone preferences in your user account.

Time Position Orientation Groundspeed Altitude Reporting Facility
EST Latitude Longitude Course Direction KTS MPH feet Rate Location/Type
03:18PM 43.4833 -71.4667 349° North 101 116 4,500  Level KA90
03:19PM 43.4667 -71.4833 216° Southwest 102 117 4,400 -60 Descending KA90
03:20PM 43.4333 -71.5167 216° Southwest 96 110 4,400 60 Level KA90
03:21PM 43.4167 -71.5333 216° Southwest 96 110 4,600 420 Climbing KA90
03:22PM 43.4000 -71.5500 216° Southwest 84 97 5,300 600 Climbing KA90
03:23PM -21.8556 -60.6601 349° North  Level Estimated
03:23PM 43.3833 -71.5667 216° Southwest 66 76 5,900  Level KA90
03:24PM 43.3833 -71.5833 270° West 64 74 6,500 180 Climbing KA90
03:25PM 43.3500 -71.6000 200° South 92 106 6,300 -60 Descending KA90
03:26PM 43.3333 -71.6333 236° Southwest 93 107 6,400 60 Climbing KA90
03:27PM 43.3167 -71.6500 216° Southwest 84 97 6,500 60 Climbing KA90
03:28PM 43.3000 -71.6667 216° Southwest 86 99 6,600 60 Climbing KA90
03:28PM 43.2853 -71.6767 206° Southwest 86 99 6,600 -120 Level Boston Center
03:29PM 43.2647 -71.6978 217° Southwest 92 106 6,500 -60 Descending Boston Center
03:30PM 43.2439 -71.7183 216° Southwest 93 107 6,500 -60 Level Boston Center
03:31PM 43.2228 -71.7372 213° Southwest 92 106 6,400  Descending Boston Center
03:32PM 43.2022 -71.7589 218° Southwest 87 100 6,500  Climbing Boston Center
03:33PM 43.1825 -71.7783 216° Southwest 86 99 6,400 -300 Descending Boston Center
03:34PM 43.1614 -71.7972 213° Southwest 90 104 5,900 -540 Descending Boston Center
03:35PM 43.1400 -71.8192 217° Southwest 95 109 5,400 -540 Descending Boston Center
03:36PM 43.1172 -71.8417 216° Southwest 100 115 4,900 -420 Descending Boston Center
03:38PM 43.0922 -71.8650 214° Southwest 102 117 4,600 -180 Descending Boston Center
03:39PM 43.0689 -71.8883 216° Southwest 104 120 4,600  Level Boston Center
03:40PM 43.0469 -71.9100 216° Southwest 101 116 4,600  Level Boston Center
03:41PM 43.0239 -71.9317 214° Southwest 102 117 4,600 -60 Level Boston Center
03:42PM 42.9994 -71.9556 216° Southwest 101 116 4,500 -120 Descending Boston Center
03:43PM 42.9753 -71.9783 215° Southwest 106 122 4,400  Descending Boston Center
03:44PM 42.9536 -72.0000 216° Southwest 99 114 4,500 60 Climbing Boston Center
03:45PM 42.9308 -72.0225 216° Southwest 101 116 4,600 60 Climbing Boston Center
03:46PM 42.9083 -72.0433 214° Southwest 99 114 4,700 -120 Climbing Boston Center
03:47PM 42.8847 -72.0672 217° Southwest 99 114 4,400 -240 Descending Boston Center
03:48PM 42.8631 -72.0878 215° Southwest 95 109 4,300 -180 Descending Boston Center
03:49PM 42.8408 -72.1092 215° Southwest 98 113 4,100 -300 Descending Boston Center
03:50PM 42.8181 -72.1311 215° Southwest 100 115 3,800 -300 Descending Boston Center
03:51PM 42.7939 -72.1544 215° Southwest 99 114 3,600 -120 Descending Boston Center
03:52PM 42.7722 -72.1747 214° Southwest 96 110 3,600 60 Level Boston Center
03:53PM 42.7500 -72.1967 216° Southwest 99 114 3,800  Climbing Boston Center
03:54PM 42.7267 -72.2192 215° Southwest 103 119 3,700 -60 Descending Boston Center
03:55PM 42.7008 -72.2431 214° Southwest 104 120 3,700  Level Boston Center
03:56PM 42.6794 -72.2625 214° Southwest 95 109 3,700  Level Boston Center
03:57PM 42.6578 -72.2858 218° Southwest 99 114 3,700 -60 Level Boston Center
03:58PM 42.6353 -72.3072 215° Southwest 99 114 3,600 -120 Descending Boston Center
03:59PM 42.6125 -72.3281 214° Southwest 99 114 3,500 -60 Descending Boston Center
04:00PM 42.5900 -72.3489 214° Southwest 98 113 3,500  Level Boston Center
04:01PM 42.5678 -72.3708 216° Southwest 98 113 3,500  Level Boston Center
04:01PM 42.5567 -72.3814 215° Southwest 97 112 3,500  Level Boston Center
04:02PM 42.5450 -72.3925 215° Southwest 100 115 3,500 300 Level Boston Center
04:02PM 42.5358 -72.4000 211° Southwest 97 112 3,800 480 Climbing Boston Center
04:03PM 42.5256 -72.4100 216° Southwest 93 107 4,000 180 Climbing Boston Center
04:03PM 42.5175 -72.4169 212° Southwest 86 99 4,000  Level Boston Center
04:04PM 42.5044 -72.4308 218° Southwest 91 105 4,000  Level Boston Center
04:04PM 42.4958 -72.4383 213° Southwest 93 107 4,000 60 Level Boston Center
04:05PM 42.4831 -72.4489 211° Southwest 91 105 4,100 60 Climbing Boston Center
04:05PM 42.4731 -72.4564 209° Southwest 92 106 4,100  Level Boston Center
04:06PM 42.4608 -72.4664 211° Southwest 92 106 4,100 60 Level Boston Center
04:06PM 42.4475 -72.4764 209° Southwest 91 105 4,200 60 Climbing Boston Center
04:07PM 42.4389 -72.4850 216° Southwest 92 106 4,200 60 Level Boston Center
04:07PM 42.4267 -72.4950 211° Southwest 96 110 4,300  Climbing Boston Center
04:08PM 42.4117 -72.5067 210° Southwest 93 107 4,200 -240 Descending Boston Center
04:08PM 42.4067 -72.5083 194° South 97 112 4,100 -120 Descending Boston Center
04:09PM 42.3878 -72.5269 216° Southwest 97 112 4,100 -120 Level Boston Center
04:09PM 42.3808 -72.5308 202° Southwest 101 116 4,000 -120 Descending Boston Center
04:10PM 42.3650 -72.5469 217° Southwest 98 113 4,000  Level Boston Center
04:10PM 42.3578 -72.5489 191° South 97 112 4,000  Level Boston Center
04:11PM 42.3425 -72.5647 217° Southwest 96 110 4,000 -120 Level Boston Center
04:11PM 42.3342 -72.5694 203° Southwest 93 107 3,900 180 Descending Boston Center
04:12PM 42.3183 -72.5839 214° Southwest 92 106 4,200 300 Climbing Boston Center
04:12PM 42.3139 -72.5856 195° South 92 106 4,200 660 Level Boston Center
04:13PM 42.3006 -72.6011 221° Southwest 77 89 4,900 780 Climbing Boston Center
04:13PM 42.2975 -72.6028 202° Southwest 54 62 5,000 600 Climbing Boston Center
04:14PM 42.2861 -72.6161 221° Southwest 59 68 5,700 540 Climbing Boston Center
04:15PM 42.2731 -72.6183 187° South 62 71 6,100 360 Climbing Boston Center
04:15PM 42.2694 -72.6247 233° Southwest 71 82 6,100 -120 Level Boston Center
04:16PM 42.2458 -72.6453 213° Southwest 104 120 6,000  Descending Boston Center
04:17PM 42.2275 -72.6594 210° Southwest 99 114 6,100 60 Climbing Boston Center
04:17PM 42.2231 -72.6631 211° Southwest 97 112 6,100  Level Boston Center
04:18PM 42.2044 -72.6786 212° Southwest 98 113 6,100  Level Boston Center
04:18PM 42.1994 -72.6836 217° Southwest 96 110 6,100  Level Boston Center
04:19PM 42.1814 -72.6978 210° Southwest 98 113 6,100  Level Boston Center
04:19PM 42.1792 -72.6994 209° Southwest 96 110 6,100 -240 Level Boston Center
04:20PM 42.1589 -72.7178 214° Southwest 98 113 5,900 -240 Descending Boston Center
04:20PM 42.1575 -72.7208 238° Southwest 101 116 5,900 180 Level Boston Center
04:21PM 42.1453 -72.7481 239° Southwest 92 106 6,100 120 Climbing Boston Center
04:21PM 42.1419 -72.7558 240° Southwest 89 102 6,100  Level Boston Center
04:22PM 42.1300 -72.7833 240° Southwest 96 110 6,100  Level Boston Center
04:23PM 42.1181 -72.8114 240° Southwest 96 110 6,200 60 Climbing Boston Center
04:23PM 42.1147 -72.8156 223° Southwest 97 112 6,200  Level Boston Center
04:24PM 42.1044 -72.8428 243° Southwest 98 113 6,200  Level Boston Center
04:25PM 42.0981 -72.8558 237° Southwest 97 112 6,200  Level Boston Center
04:25PM 42.0906 -72.8733 240° Southwest 96 110 6,200  Level Boston Center
04:25PM 42.0867 -72.8806 234° Southwest 96 110 6,200  Level Boston Center
04:26PM 42.0769 -72.9036 240° Southwest 95 109 6,200  Level Boston Center
04:27PM 42.0736 -72.9136 246° West 95 109 6,200  Level Boston Center
04:27PM 42.0633 -72.9364 239° Southwest 92 106 6,200 60 Level Boston Center
04:27PM 42.0614 -72.9411 241° Southwest 93 107 6,300  Climbing Boston Center
04:28PM 42.0500 -72.9661 238° Southwest 93 107 6,200 -240 Descending Boston Center
04:29PM 42.0464 -72.9733 236° Southwest 93 107 6,100 -240 Descending Boston Center
04:29PM 42.0367 -72.9967 241° Southwest 95 109 6,000 -240 Descending Boston Center
04:29PM 42.0342 -73.0006 229° Southwest 95 109 5,900 300 Descending Boston Center
04:30PM 42.0239 -73.0253 241° Southwest 89 102 6,300 360 Climbing Boston Center
04:31PM 42.0161 -73.0258 183° South 87 100 6,400 240 Climbing Boston Center
04:31PM 42.0031 -73.0372 213° Southwest 84 97 6,600 60 Climbing Boston Center
04:32PM 41.9958 -73.0417 205° Southwest 89 102 6,500 -120 Descending Boston Center
04:33PM 41.9728 -73.0592 209° Southwest 94 108 6,500  Level Boston Center
04:33PM 41.9558 -73.0719 209° Southwest 92 106 6,600  Climbing Boston Center
04:34PM 41.9497 -73.0769 211° Southwest 93 107 6,500  Descending Boston Center
04:34PM 41.9325 -73.0878 205° Southwest 94 108 6,600  Climbing Boston Center
04:35PM 41.9253 -73.0911 199° South 94 108 6,500  Descending Boston Center
04:35PM 41.9094 -73.1044 212° Southwest 94 108 6,600  Climbing Boston Center
04:36PM 41.9022 -73.1086 203° Southwest 94 108 6,500  Descending Boston Center
04:36PM 41.8867 -73.1206 210° Southwest 93 107 6,600  Climbing Boston Center
04:37PM 41.8817 -73.1244 210° Southwest 93 107 6,500  Descending Boston Center
04:37PM 41.8628 -73.1378 208° Southwest 90 104 6,600  Climbing Boston Center
04:38PM 41.8586 -73.1419 217° Southwest 91 105 6,500  Descending Boston Center
04:38PM 41.8397 -73.1533 204° Southwest 92 106 6,600  Climbing Boston Center
04:39PM 41.8361 -73.1569 217° Southwest 92 106 6,500  Descending Boston Center
04:39PM 41.8172 -73.1694 206° Southwest 92 106 6,600  Climbing Boston Center
04:40PM 41.8156 -73.1725 234° Southwest 90 104 6,500 -120 Descending Boston Center
04:40PM 41.7958 -73.1858 207° Southwest 90 104 6,500 -60 Level Boston Center
04:42PM 41.7717 -73.2031 208° Southwest 91 105 6,400  Descending Boston Center
04:43PM 41.7489 -73.2189 207° Southwest 93 107 6,500  Climbing Boston Center
04:44PM 41.7256 -73.2347 207° Southwest 95 109 6,500  Level Boston Center
04:45PM 41.7039 -73.2506 209° Southwest 91 105 6,500  Level Boston Center
04:46PM 41.6822 -73.2658 208° Southwest 88 101 6,500  Level Boston Center
04:47PM 41.6575 -73.2828 207° Southwest 91 105 6,500  Level Boston Center
04:48PM 41.6339 -73.2986 207° Southwest 95 109 6,500 -60 Level Boston Center
04:49PM 41.6117 -73.3147 208° Southwest 91 105 6,400 -300 Descending Boston Center
04:50PM 41.5886 -73.3303 207° Southwest 92 106 6,000 -540 Descending Boston Center
04:51PM 41.5656 -73.3464 208° Southwest 94 108 5,400 -600 Descending Boston Center
04:52PM 41.5397 -73.3647 208° Southwest 97 112 4,900 -420 Descending Boston Center
04:53PM 41.5181 -73.3794 207° Southwest 96 110 4,600 -300 Descending Boston Center
04:55PM 41.4835 -73.4332 246° West  Level FlightAware Approximate
05:02PM 41.3715 -73.4822 163° South  Level Estimated
05:03PM 41.3715 -73.4822 247° West  Level Estimated
05:04PM 41.3715 -73.4822 159° South  Level Estimated
05:05PM 41.3715 -73.4822 211° Southwest  Level Estimated
05:06PM 41.3715 -73.4822 156° South  Level Estimated
05:07PM 41.3715 -73.4822 188° South  Level Estimated
05:08PM 41.3715 -73.4822 188° South  Level Estimated
05:09PM 41.3715 -73.4822 211° Southwest  Level Estimated
05:10PM 41.3715 -73.4822 196° South  Level Estimated
05:11PM 41.3715 -73.4822 196° South  Level Estimated
05:12PM 41.3715 -73.4822 217° Southwest  Level Estimated
05:13PM 41.3715 -73.4822 21° North  Level Estimated
05:14PM 41.3715 -73.4822 197° South  Level Estimated
05:15PM 41.3715 -73.4822 197° South  Level Estimated
05:16PM 41.3715 -73.4822 197° South  Level Estimated
05:17PM 41.3715 -73.4822 21° North  Level Estimated
05:18PM 41.3715 -73.4822 191° South  Level Estimated
05:19PM 41.3715 -73.4822 191° South  Level Estimated
05:20PM 41.3715 -73.4822 191° South  Level Estimated
05:21PM 41.3715 -73.4822 21° North  Level Estimated
05:22PM 41.3715 -73.4822 113° Southeast  Level Estimated
05:23PM 41.3715 -73.4822 113° Southeast  Level Estimated
05:24PM 41.3715 -73.4822 21° North  Level Estimated
05:25PM 41.3715 -73.4822 21° North  Level Estimated
05:26PM 41.3715 -73.4822 21° North  Level Estimated
05:27PM 41.3715 -73.4822 21° North  Level Estimated
05:28PM 41.3715 -73.4822 21° North  Level Estimated
05:29PM 41.3715 -73.4822 21° North  Level Estimated
05:30PM 41.3715 -73.4822 21° North  Level Estimated
05:31PM 41.3715 -73.4822 21° North  Level Estimated
05:32PM 41.3715 -73.4822 21° North  Level Estimated